createdAt,value
2022-10-18T00:01:31.790Z,1
2022-10-18T00:11:31.715Z,1
2022-10-18T00:21:31.725Z,1
2022-10-18T00:31:31.547Z,1
2022-10-18T00:41:31.494Z,1
2022-10-18T00:51:31.404Z,1
2022-10-18T01:01:31.411Z,1
2022-10-18T01:11:31.259Z,1
2022-10-18T01:21:31.192Z,1
2022-10-18T01:31:31.138Z,1
2022-10-18T01:41:31.057Z,1
2022-10-18T01:51:30.986Z,1
2022-10-18T02:01:30.939Z,1
2022-10-18T02:11:30.850Z,1
2022-10-18T02:21:30.802Z,1
2022-10-18T02:31:30.715Z,1
2022-10-18T02:41:30.608Z,1
2022-10-18T02:51:30.573Z,1
2022-10-18T03:01:30.559Z,1
2022-10-18T03:11:30.436Z,1
2022-10-18T03:21:30.353Z,1
2022-10-18T03:41:30.232Z,6
2022-10-18T03:51:30.151Z,7
2022-10-18T04:01:30.080Z,14
2022-10-18T04:11:30.005Z,18
2022-10-18T04:21:29.967Z,23
2022-10-18T04:31:29.864Z,29
2022-10-18T04:41:29.818Z,30
2022-10-18T04:51:29.742Z,23
2022-10-18T05:01:29.729Z,31
2022-10-18T05:11:29.571Z,33
2022-10-18T05:21:29.510Z,42
2022-10-18T05:31:29.447Z,44
2022-10-18T05:41:29.400Z,45
2022-10-18T05:51:29.292Z,47
2022-10-18T06:01:29.245Z,52
2022-10-18T06:11:29.177Z,53
2022-10-18T06:21:29.070Z,52
2022-10-18T06:31:29.019Z,60
2022-10-18T06:41:28.946Z,65
2022-10-18T06:51:28.966Z,72
2022-10-18T07:01:28.877Z,76
2022-10-18T07:11:28.860Z,73
2022-10-18T07:21:28.663Z,69
2022-10-18T07:31:28.611Z,66
2022-10-18T07:41:28.632Z,61
2022-10-18T07:51:28.462Z,58
2022-10-18T08:01:28.474Z,50
2022-10-18T08:11:28.438Z,51
2022-10-18T08:21:28.268Z,57
2022-10-18T08:31:28.168Z,55
2022-10-18T08:41:28.110Z,53
2022-10-18T08:51:28.044Z,54
2022-10-18T09:01:28.094Z,63
2022-10-18T09:11:27.905Z,62
2022-10-18T09:21:27.833Z,61
2022-10-18T09:31:27.870Z,74
2022-10-18T09:41:27.717Z,83
2022-10-18T09:51:27.609Z,85
2022-10-18T10:01:27.552Z,96
2022-10-18T10:11:28.062Z,96
2022-10-18T10:21:27.404Z,96
2022-10-18T10:31:27.352Z,99
2022-10-18T10:41:27.296Z,99
2022-10-18T10:51:27.212Z,99
2022-10-18T11:01:27.132Z,99
2022-10-18T11:11:27.068Z,99
2022-10-18T11:21:27.001Z,99
2022-10-18T11:31:26.941Z,99
2022-10-18T11:41:26.854Z,99
2022-10-18T11:51:34.190Z,99
2022-10-18T12:01:28.620Z,99
2022-10-18T12:11:26.687Z,99
2022-10-18T12:21:26.642Z,99
2022-10-18T12:31:26.504Z,99
2022-10-18T12:41:26.480Z,99
2022-10-18T12:51:26.358Z,99
2022-10-18T13:01:26.449Z,99
2022-10-18T13:11:26.225Z,99
2022-10-18T13:21:26.147Z,99
2022-10-18T13:31:26.092Z,99
2022-10-18T13:41:26.830Z,99
2022-10-18T13:51:25.973Z,99
2022-10-18T14:01:25.996Z,99
2022-10-18T14:11:25.829Z,99
2022-10-18T14:21:30.995Z,99
2022-10-18T14:31:25.705Z,99
2022-10-18T14:41:25.712Z,99
2022-10-18T14:51:25.558Z,99
2022-10-18T15:01:25.672Z,99
2022-10-18T15:11:25.431Z,99
2022-10-18T15:21:25.351Z,99
2022-10-18T15:31:25.286Z,1
2022-10-18T15:41:25.203Z,1
2022-10-18T15:51:25.128Z,1
2022-10-18T16:01:25.117Z,1
2022-10-18T16:11:25.010Z,1
2022-10-18T16:21:24.952Z,1
2022-10-18T16:31:24.853Z,1
2022-10-18T16:41:24.806Z,1
2022-10-18T16:51:24.734Z,1
2022-10-18T17:01:24.737Z,1
2022-10-18T17:11:24.590Z,1
2022-10-18T17:21:24.633Z,1
2022-10-18T17:31:24.464Z,1
2022-10-18T17:41:24.381Z,1
2022-10-18T17:51:24.313Z,1
2022-10-18T18:01:24.261Z,1
2022-10-18T18:11:24.188Z,1
2022-10-18T18:21:24.120Z,1
2022-10-18T18:31:24.055Z,1
2022-10-18T18:41:23.989Z,1
2022-10-18T18:51:23.921Z,1
2022-10-18T19:01:24.021Z,1
2022-10-18T19:11:23.758Z,1
2022-10-18T19:21:23.689Z,1
2022-10-18T19:31:23.641Z,1
2022-10-18T19:41:23.574Z,1
2022-10-18T19:51:27.750Z,1
2022-10-18T20:01:23.522Z,1
2022-10-18T20:11:23.492Z,1
2022-10-18T20:21:23.295Z,1
2022-10-18T20:31:23.229Z,99
2022-10-18T20:41:23.148Z,99
2022-10-18T20:51:23.088Z,99
2022-10-18T21:01:23.159Z,99
2022-10-18T21:11:22.978Z,99
2022-10-18T21:21:23.035Z,99
2022-10-18T21:31:22.816Z,99
2022-10-18T21:41:22.906Z,99
2022-10-18T21:51:22.680Z,93
2022-10-18T22:01:22.682Z,68
2022-10-18T22:11:22.643Z,55
2022-10-18T22:21:22.470Z,60
2022-10-18T22:31:22.389Z,25
2022-10-18T22:41:22.315Z,35
2022-10-18T22:51:22.403Z,29
2022-10-18T23:01:22.175Z,28
2022-10-18T23:11:22.127Z,25
2022-10-18T23:21:22.012Z,7
2022-10-18T23:31:21.946Z,2
2022-10-18T23:41:21.888Z,1
2022-10-18T23:51:21.815Z,1
